sensor_id;sensor_type;location;lat;lon;timestamp;pressure;altitude;pressure_sealevel;temperature;humidity
54808;BME280;40708;50.364;7.550;2022-09-12T00:02:09;100675.81;;;13.15;100.00
54808;BME280;40708;50.364;7.550;2022-09-12T00:04:34;100674.03;;;13.13;100.00
54808;BME280;40708;50.364;7.550;2022-09-12T00:06:59;100682.03;;;13.10;100.00
54808;BME280;40708;50.364;7.550;2022-09-12T00:09:25;100674.94;;;13.02;100.00
54808;BME280;40708;50.364;7.550;2022-09-12T00:11:50;100678.50;;;12.99;100.00
54808;BME280;40708;50.364;7.550;2022-09-12T00:14:17;100676.78;;;12.98;100.00
54808;BME280;40708;50.364;7.550;2022-09-12T00:16:43;100674.97;;;13.00;100.00
54808;BME280;40708;50.364;7.550;2022-09-12T00:19:09;100674.09;;;12.97;100.00
54808;BME280;40708;50.364;7.550;2022-09-12T00:21:37;100658.13;;;12.97;100.00
54808;BME280;40708;50.364;7.550;2022-09-12T00:24:03;100667.00;;;12.94;100.00
54808;BME280;40708;50.364;7.550;2022-09-12T00:26:29;100656.38;;;12.88;100.00
54808;BME280;40708;50.364;7.550;2022-09-12T00:28:54;100661.72;;;12.88;100.00
54808;BME280;40708;50.364;7.550;2022-09-12T00:31:21;100661.75;;;12.85;100.00
54808;BME280;40708;50.364;7.550;2022-09-12T00:33:51;100654.66;;;12.81;100.00
54808;BME280;40708;50.364;7.550;2022-09-12T00:36:20;100658.22;;;12.82;100.00
54808;BME280;40708;50.364;7.550;2022-09-12T00:38:46;100660.88;;;12.82;100.00
54808;BME280;40708;50.364;7.550;2022-09-12T00:43:42;100650.28;;;12.74;100.00
54808;BME280;40708;50.364;7.550;2022-09-12T00:46:28;100646.69;;;12.78;100.00
54808;BME280;40708;50.364;7.550;2022-09-12T00:49:24;100645.81;;;12.76;100.00
54808;BME280;40708;50.364;7.550;2022-09-12T00:52:04;100647.63;;;12.70;100.00
54808;BME280;40708;50.364;7.550;2022-09-12T00:54:35;100648.53;;;12.69;100.00
54808;BME280;40708;50.364;7.550;2022-09-12T00:57:03;100646.72;;;12.72;100.00
54808;BME280;40708;50.364;7.550;2022-09-12T00:59:36;100645.88;;;12.69;100.00
54808;BME280;40708;50.364;7.550;2022-09-12T01:02:03;100644.03;;;12.75;100.00
54808;BME280;40708;50.364;7.550;2022-09-12T01:04:29;100641.38;;;12.72;100.00
54808;BME280;40708;50.364;7.550;2022-09-12T01:06:56;100636.09;;;12.65;100.00
54808;BME280;40708;50.364;7.550;2022-09-12T01:09:23;100633.47;;;12.63;100.00
54808;BME280;40708;50.364;7.550;2022-09-12T01:11:50;100632.59;;;12.57;100.00
54808;BME280;40708;50.364;7.550;2022-09-12T01:14:18;100627.28;;;12.57;100.00
54808;BME280;40708;50.364;7.550;2022-09-12T01:16:44;100630.84;;;12.51;100.00
54808;BME280;40708;50.364;7.550;2022-09-12T01:22:10;100637.06;;;12.48;100.00
54808;BME280;40708;50.364;7.550;2022-09-12T01:24:51;100635.34;;;12.44;100.00
54808;BME280;40708;50.364;7.550;2022-09-12T01:27:50;100630.91;;;12.43;100.00
54808;BME280;40708;50.364;7.550;2022-09-12T01:30:24;100630.88;;;12.42;100.00
54808;BME280;40708;50.364;7.550;2022-09-12T01:39:07;100623.78;;;12.50;100.00
54808;BME280;40708;50.364;7.550;2022-09-12T01:42:20;100625.56;;;12.43;100.00
54808;BME280;40708;50.364;7.550;2022-09-12T01:44:51;100629.13;;;12.41;100.00
54808;BME280;40708;50.364;7.550;2022-09-12T01:47:31;100620.28;;;12.31;100.00
54808;BME280;40708;50.364;7.550;2022-09-12T01:50:17;100629.16;;;12.32;100.00
54808;BME280;40708;50.364;7.550;2022-09-12T01:52:53;100622.97;;;12.30;100.00
54808;BME280;40708;50.364;7.550;2022-09-12T01:55:25;100621.19;;;12.30;100.00
54808;BME280;40708;50.364;7.550;2022-09-12T01:58:04;100617.66;;;12.30;100.00
54808;BME280;40708;50.364;7.550;2022-09-12T02:00:40;100619.44;;;12.25;100.00
54808;BME280;40708;50.364;7.550;2022-09-12T02:03:10;100608.81;;;12.25;100.00
54808;BME280;40708;50.364;7.550;2022-09-12T02:05:40;100614.09;;;12.26;100.00
54808;BME280;40708;50.364;7.550;2022-09-12T02:08:30;100616.78;;;12.20;100.00
54808;BME280;40708;50.364;7.550;2022-09-12T02:11:08;100604.38;;;12.19;100.00
54808;BME280;40708;50.364;7.550;2022-09-12T02:13:43;100593.75;;;12.16;100.00
54808;BME280;40708;50.364;7.550;2022-09-12T02:16:15;100597.31;;;12.14;100.00
54808;BME280;40708;50.364;7.550;2022-09-12T02:18:55;100599.09;;;12.09;100.00
54808;BME280;40708;50.364;7.550;2022-09-12T02:21:23;100602.66;;;12.08;100.00
54808;BME280;40708;50.364;7.550;2022-09-12T02:23:55;100600.91;;;12.04;100.00
54808;BME280;40708;50.364;7.550;2022-09-12T02:26:33;100600.91;;;12.01;100.00
54808;BME280;40708;50.364;7.550;2022-09-12T02:29:00;100606.22;;;12.04;100.00
54808;BME280;40708;50.364;7.550;2022-09-12T02:31:39;100603.56;;;12.01;100.00
54808;BME280;40708;50.364;7.550;2022-09-12T02:34:28;100606.22;;;11.99;100.00
54808;BME280;40708;50.364;7.550;2022-09-12T02:37:06;100608.88;;;12.01;100.00
54808;BME280;40708;50.364;7.550;2022-09-12T02:39:34;100606.22;;;12.01;100.00
54808;BME280;40708;50.364;7.550;2022-09-12T02:42:01;100611.53;;;12.04;100.00
54808;BME280;40708;50.364;7.550;2022-09-12T02:44:28;100603.53;;;12.02;100.00
54808;BME280;40708;50.364;7.550;2022-09-12T02:47:00;100610.66;;;11.97;100.00
54808;BME280;40708;50.364;7.550;2022-09-12T02:49:28;100600.03;;;11.97;100.00
54808;BME280;40708;50.364;7.550;2022-09-12T02:51:53;100605.34;;;11.96;100.00
54808;BME280;40708;50.364;7.550;2022-09-12T02:54:19;100608.91;;;11.94;100.00
54808;BME280;40708;50.364;7.550;2022-09-12T02:56:45;100600.00;;;11.99;100.00
54808;BME280;40708;50.364;7.550;2022-09-12T02:59:14;100598.25;;;12.04;100.00
54808;BME280;40708;50.364;7.550;2022-09-12T03:01:58;100605.34;;;11.97;100.00
54808;BME280;40708;50.364;7.550;2022-09-12T03:04:47;100605.34;;;11.94;100.00
54808;BME280;40708;50.364;7.550;2022-09-12T03:10:13;100600.94;;;11.87;100.00
54808;BME280;40708;50.364;7.550;2022-09-12T03:13:02;100603.59;;;11.87;100.00
54808;BME280;40708;50.364;7.550;2022-09-12T03:15:48;100609.81;;;11.81;100.00
54808;BME280;40708;50.364;7.550;2022-09-12T03:18:24;100605.34;;;11.88;100.00
54808;BME280;40708;50.364;7.550;2022-09-12T03:29:06;100605.28;;;12.14;100.00
54808;BME280;40708;50.364;7.550;2022-09-12T03:31:32;100607.03;;;12.22;100.00
54808;BME280;40708;50.364;7.550;2022-09-12T03:33:59;100605.25;;;12.27;100.00
54808;BME280;40708;50.364;7.550;2022-09-12T03:36:27;100600.81;;;12.26;100.00
54808;BME280;40708;50.364;7.550;2022-09-12T03:38:53;100601.69;;;12.30;100.00
54808;BME280;40708;50.364;7.550;2022-09-12T03:41:18;100602.56;;;12.29;100.00
54808;BME280;40708;50.364;7.550;2022-09-12T03:43:44;100601.66;;;12.31;100.00
54808;BME280;40708;50.364;7.550;2022-09-12T03:46:10;100607.91;;;12.30;100.00
54808;BME280;40708;50.364;7.550;2022-09-12T03:48:36;100615.88;;;12.29;100.00
54808;BME280;40708;50.364;7.550;2022-09-12T03:51:04;100615.00;;;12.25;100.00
54808;BME280;40708;50.364;7.550;2022-09-12T03:53:30;100619.41;;;12.29;100.00
54808;BME280;40708;50.364;7.550;2022-09-12T03:55:56;100623.84;;;12.29;100.00
54808;BME280;40708;50.364;7.550;2022-09-12T03:58:21;100625.63;;;12.30;100.00
54808;BME280;40708;50.364;7.550;2022-09-12T04:00:47;100624.72;;;12.34;100.00
54808;BME280;40708;50.364;7.550;2022-09-12T04:03:12;100623.84;;;12.30;100.00
54808;BME280;40708;50.364;7.550;2022-09-12T04:05:37;100617.63;;;12.33;100.00
54808;BME280;40708;50.364;7.550;2022-09-12T04:08:03;100617.63;;;12.33;100.00
54808;BME280;40708;50.364;7.550;2022-09-12T04:10:28;100620.28;;;12.31;100.00
54808;BME280;40708;50.364;7.550;2022-09-12T04:12:53;100618.53;;;12.27;100.00
54808;BME280;40708;50.364;7.550;2022-09-12T04:15:18;100617.66;;;12.27;100.00
54808;BME280;40708;50.364;7.550;2022-09-12T04:17:44;100619.41;;;12.29;100.00
54808;BME280;40708;50.364;7.550;2022-09-12T04:20:09;100615.88;;;12.29;100.00
54808;BME280;40708;50.364;7.550;2022-09-12T04:22:34;100617.63;;;12.31;100.00
54808;BME280;40708;50.364;7.550;2022-09-12T04:25:00;100617.66;;;12.30;100.00
54808;BME280;40708;50.364;7.550;2022-09-12T04:27:26;100609.66;;;12.31;100.00
54808;BME280;40708;50.364;7.550;2022-09-12T04:29:51;100613.19;;;12.35;100.00
54808;BME280;40708;50.364;7.550;2022-09-12T04:32:17;100607.00;;;12.36;100.00
54808;BME280;40708;50.364;7.550;2022-09-12T04:34:42;100620.28;;;12.34;100.00
54808;BME280;40708;50.364;7.550;2022-09-12T04:37:08;100608.78;;;12.31;100.00
54808;BME280;40708;50.364;7.550;2022-09-12T04:39:35;100614.09;;;12.23;100.00
54808;BME280;40708;50.364;7.550;2022-09-12T04:42:00;100612.38;;;12.16;100.00
54808;BME280;40708;50.364;7.550;2022-09-12T04:44:26;100615.06;;;12.12;100.00
54808;BME280;40708;50.364;7.550;2022-09-12T04:46:51;100620.34;;;12.18;100.00
54808;BME280;40708;50.364;7.550;2022-09-12T04:49:17;100622.13;;;12.16;100.00
54808;BME280;40708;50.364;7.550;2022-09-12T04:51:43;100615.03;;;12.13;100.00
54808;BME280;40708;50.364;7.550;2022-09-12T04:54:17;100607.03;;;12.18;100.00
54808;BME280;40708;50.364;7.550;2022-09-12T04:56:45;100603.47;;;12.23;100.00
54808;BME280;40708;50.364;7.550;2022-09-12T04:59:11;100604.31;;;12.37;100.00
54808;BME280;40708;50.364;7.550;2022-09-12T05:01:37;100593.63;;;12.43;100.00
54808;BME280;40708;50.364;7.550;2022-09-12T05:04:03;100589.13;;;12.53;100.00
54808;BME280;40708;50.364;7.550;2022-09-12T05:06:31;100587.38;;;12.58;100.00
54808;BME280;40708;50.364;7.550;2022-09-12T05:08:57;100590.03;;;12.58;100.00
54808;BME280;40708;50.364;7.550;2022-09-12T05:11:25;100594.41;;;12.68;100.00
54808;BME280;40708;50.364;7.550;2022-09-12T05:13:51;100598.78;;;12.72;100.00
54808;BME280;40708;50.364;7.550;2022-09-12T05:16:17;100593.47;;;12.74;100.00
54808;BME280;40708;50.364;7.550;2022-09-12T05:18:43;100597.03;;;12.74;100.00
54808;BME280;40708;50.364;7.550;2022-09-12T05:21:11;100589.03;;;12.77;100.00
54808;BME280;40708;50.364;7.550;2022-09-12T05:23:36;100599.63;;;12.85;100.00
54808;BME280;40708;50.364;7.550;2022-09-12T05:26:03;100597.81;;;12.87;100.00
54808;BME280;40708;50.364;7.550;2022-09-12T05:28:33;100595.09;;;12.97;100.00
54808;BME280;40708;50.364;7.550;2022-09-12T05:31:11;100592.44;;;12.97;100.00
54808;BME280;40708;50.364;7.550;2022-09-12T05:33:38;100587.06;;;13.03;100.00
54808;BME280;40708;50.364;7.550;2022-09-12T05:36:06;100591.44;;;13.13;100.00
54808;BME280;40708;50.364;7.550;2022-09-12T05:38:35;100595.88;;;13.16;100.00
54808;BME280;40708;50.364;7.550;2022-09-12T05:41:06;100588.78;;;13.13;100.00
54808;BME280;40708;50.364;7.550;2022-09-12T05:43:35;100592.28;;;13.19;100.00
54808;BME280;40708;50.364;7.550;2022-09-12T05:46:07;100587.78;;;13.27;100.00
54808;BME280;40708;50.364;7.550;2022-09-12T05:48:37;100590.41;;;13.33;100.00
54808;BME280;40708;50.364;7.550;2022-09-12T05:51:08;100592.16;;;13.40;100.00
54808;BME280;40708;50.364;7.550;2022-09-12T05:53:35;100591.31;;;13.33;100.00
54808;BME280;40708;50.364;7.550;2022-09-12T05:56:09;100590.38;;;13.36;100.00
54808;BME280;40708;50.364;7.550;2022-09-12T05:58:36;100590.34;;;13.40;100.00
54808;BME280;40708;50.364;7.550;2022-09-12T06:01:04;100591.22;;;13.42;100.00
54808;BME280;40708;50.364;7.550;2022-09-12T06:03:31;100596.50;;;13.50;100.00
54808;BME280;40708;50.364;7.550;2022-09-12T06:05:56;100598.16;;;13.61;100.00
54808;BME280;40708;50.364;7.550;2022-09-12T06:08:22;100598.16;;;13.60;100.00
54808;BME280;40708;50.364;7.550;2022-09-12T06:10:47;100596.38;;;13.60;100.00
54808;BME280;40708;50.364;7.550;2022-09-12T06:13:13;100591.78;;;13.76;100.00
54808;BME280;40708;50.364;7.550;2022-09-12T06:15:39;100598.97;;;13.68;100.00
54808;BME280;40708;50.364;7.550;2022-09-12T06:18:04;100593.38;;;13.92;100.00
54808;BME280;40708;50.364;7.550;2022-09-12T06:20:29;100588.81;;;14.03;100.00
54808;BME280;40708;50.364;7.550;2022-09-12T06:22:55;100596.97;;;13.91;100.00
54808;BME280;40708;50.364;7.550;2022-09-12T06:25:21;100591.47;;;14.03;100.00
54808;BME280;40708;50.364;7.550;2022-09-12T06:27:46;100592.28;;;14.11;100.00
54808;BME280;40708;50.364;7.550;2022-09-12T06:30:12;100588.03;;;13.92;100.00
54808;BME280;40708;50.364;7.550;2022-09-12T06:32:37;100592.19;;;14.19;100.00
54808;BME280;40708;50.364;7.550;2022-09-12T06:35:02;100598.38;;;14.24;100.00
54808;BME280;40708;50.364;7.550;2022-09-12T06:37:29;100597.38;;;14.32;100.00
54808;BME280;40708;50.364;7.550;2022-09-12T06:39:54;100596.44;;;14.38;100.00
54808;BME280;40708;50.364;7.550;2022-09-12T06:42:20;100594.59;;;14.42;100.00
54808;BME280;40708;50.364;7.550;2022-09-12T06:44:46;100589.13;;;14.52;100.00
54808;BME280;40708;50.364;7.550;2022-09-12T06:47:11;100588.25;;;14.53;100.00
54808;BME280;40708;50.364;7.550;2022-09-12T06:49:37;100591.63;;;14.67;100.00
54808;BME280;40708;50.364;7.550;2022-09-12T06:52:02;100592.13;;;14.92;100.00
54808;BME280;40708;50.364;7.550;2022-09-12T06:54:27;100583.03;;;15.05;100.00
54808;BME280;40708;50.364;7.550;2022-09-12T06:56:53;100582.09;;;15.06;100.00
54808;BME280;40708;50.364;7.550;2022-09-12T06:59:18;100581.50;;;15.42;100.00
54808;BME280;40708;50.364;7.550;2022-09-12T07:01:44;100574.81;;;15.71;100.00
54808;BME280;40708;50.364;7.550;2022-09-12T07:04:09;100572.00;;;15.78;100.00
54808;BME280;40708;50.364;7.550;2022-09-12T07:06:36;100562.88;;;15.88;100.00
54808;BME280;40708;50.364;7.550;2022-09-12T07:09:05;100556.19;;;16.11;100.00
54808;BME280;40708;50.364;7.550;2022-09-12T07:11:33;100553.91;;;16.34;100.00
54808;BME280;40708;50.364;7.550;2022-09-12T07:14:00;100555.31;;;16.50;100.00
54808;BME280;40708;50.364;7.550;2022-09-12T07:16:25;100563.28;;;16.56;100.00
54808;BME280;40708;50.364;7.550;2022-09-12T07:18:53;100551.91;;;16.43;100.00
54808;BME280;40708;50.364;7.550;2022-09-12T07:21:19;100547.38;;;16.04;100.00
54808;BME280;40708;50.364;7.550;2022-09-12T07:23:45;100562.22;;;16.20;100.00
54808;BME280;40708;50.364;7.550;2022-09-12T07:26:12;100562.66;;;16.42;100.00
54808;BME280;40708;50.364;7.550;2022-09-12T07:28:38;100565.31;;;16.85;100.00
54808;BME280;40708;50.364;7.550;2022-09-12T07:31:10;100554.84;;;17.09;100.00
54808;BME280;40708;50.364;7.550;2022-09-12T07:33:37;100542.50;;;17.39;100.00
54808;BME280;40708;50.364;7.550;2022-09-12T07:36:04;100537.84;;;17.47;100.00
54808;BME280;40708;50.364;7.550;2022-09-12T07:38:30;100530.19;;;18.29;100.00
54808;BME280;40708;50.364;7.550;2022-09-12T07:40:55;100519.78;;;19.03;100.00
54808;BME280;40708;50.364;7.550;2022-09-12T07:43:21;100518.47;;;19.69;100.00
54808;BME280;40708;50.364;7.550;2022-09-12T07:45:46;100511.75;;;20.05;100.00
54808;BME280;40708;50.364;7.550;2022-09-12T07:48:11;100502.56;;;20.10;100.00
54808;BME280;40708;50.364;7.550;2022-09-12T07:50:37;100506.50;;;20.00;100.00
54808;BME280;40708;50.364;7.550;2022-09-12T07:53:03;100500.81;;;20.56;100.00
54808;BME280;40708;50.364;7.550;2022-09-12T07:55:29;100499.50;;;20.66;100.00
54808;BME280;40708;50.364;7.550;2022-09-12T07:57:55;100491.16;;;21.17;100.00
54808;BME280;40708;50.364;7.550;2022-09-12T08:00:20;100491.84;;;21.42;100.00
54808;BME280;40708;50.364;7.550;2022-09-12T08:02:50;100495.72;;;21.15;100.00
54808;BME280;40708;50.364;7.550;2022-09-12T08:05:16;100493.09;;;21.33;100.00
54808;BME280;40708;50.364;7.550;2022-09-12T08:07:41;100497.59;;;21.55;100.00
54808;BME280;40708;50.364;7.550;2022-09-12T08:10:07;100494.50;;;21.44;100.00
54808;BME280;40708;50.364;7.550;2022-09-12T08:12:33;100491.38;;;21.53;100.00
54808;BME280;40708;50.364;7.550;2022-09-12T08:14:58;100498.69;;;22.48;100.00
54808;BME280;40708;50.364;7.550;2022-09-12T08:17:24;100498.53;;;22.72;100.00
54808;BME280;40708;50.364;7.550;2022-09-12T08:19:50;100509.47;;;21.51;100.00
54808;BME280;40708;50.364;7.550;2022-09-12T08:22:15;100510.09;;;21.57;100.00
54808;BME280;40708;50.364;7.550;2022-09-12T08:24:40;100518.84;;;20.99;100.00
54808;BME280;40708;50.364;7.550;2022-09-12T08:27:06;100498.69;;;21.71;100.00
54808;BME280;40708;50.364;7.550;2022-09-12T08:29:32;100503.59;;;21.81;100.00
54808;BME280;40708;50.364;7.550;2022-09-12T08:31:58;100497.81;;;22.29;100.00
54808;BME280;40708;50.364;7.550;2022-09-12T08:34:23;100493.16;;;22.70;100.00
54808;BME280;40708;50.364;7.550;2022-09-12T08:36:49;100495.88;;;22.13;100.00
54808;BME280;40708;50.364;7.550;2022-09-12T08:39:14;100495.97;;;21.71;100.00
54808;BME280;40708;50.364;7.550;2022-09-12T08:41:42;100493.13;;;22.14;100.00
54808;BME280;40708;50.364;7.550;2022-09-12T08:50:33;100477.31;;;23.34;100.00
54808;BME280;40708;50.364;7.550;2022-09-12T08:53:03;100473.59;;;23.71;100.00
54808;BME280;40708;50.364;7.550;2022-09-12T08:55:40;100471.00;;;24.02;100.00
54808;BME280;40708;50.364;7.550;2022-09-12T09:01:07;100466.31;;;23.89;100.00
54808;BME280;40708;50.364;7.550;2022-09-12T09:03:55;100469.03;;;23.89;100.00
54808;BME280;40708;50.364;7.550;2022-09-12T09:06:34;100470.19;;;24.33;100.00
54808;BME280;40708;50.364;7.550;2022-09-12T09:15:02;100467.97;;;23.23;100.00
54808;BME280;40708;50.364;7.550;2022-09-12T09:17:42;100461.28;;;23.30;100.00
54808;BME280;40708;50.364;7.550;2022-09-12T09:23:12;100456.59;;;23.67;100.00
54808;BME280;40708;50.364;7.550;2022-09-12T09:25:49;100449.34;;;23.85;100.00
54808;BME280;40708;50.364;7.550;2022-09-12T09:28:21;100451.44;;;23.63;100.00
54808;BME280;40708;50.364;7.550;2022-09-12T09:30:48;100453.09;;;23.83;100.00
54808;BME280;40708;50.364;7.550;2022-09-12T09:33:22;100446.00;;;23.11;100.00
54808;BME280;40708;50.364;7.550;2022-09-12T09:35:59;100432.81;;;23.57;100.00
54808;BME280;40708;50.364;7.550;2022-09-12T09:41:35;100428.31;;;24.70;100.00
54808;BME280;40708;50.364;7.550;2022-09-12T09:44:05;100415.94;;;25.41;100.00
54808;BME280;40708;50.364;7.550;2022-09-12T09:46:31;100411.63;;;25.67;100.00
54808;BME280;40708;50.364;7.550;2022-09-12T09:48:58;100408.50;;;25.59;100.00
54808;BME280;40708;50.364;7.550;2022-09-12T09:51:32;100405.69;;;25.16;100.00
54808;BME280;40708;50.364;7.550;2022-09-12T09:54:25;100398.13;;;25.79;100.00
54808;BME280;40708;50.364;7.550;2022-09-12T09:56:52;100401.28;;;26.16;100.00
54808;BME280;40708;50.364;7.550;2022-09-12T09:59:30;100402.06;;;25.45;100.00
54808;BME280;40708;50.364;7.550;2022-09-12T10:02:02;100402.69;;;25.93;100.00
54808;BME280;40708;50.364;7.550;2022-09-12T10:04:30;100401.94;;;25.91;100.00
54808;BME280;40708;50.364;7.550;2022-09-12T10:07:01;100391.16;;;25.31;100.00
54808;BME280;40708;50.364;7.550;2022-09-12T10:09:29;100394.56;;;25.65;100.00
54808;BME280;40708;50.364;7.550;2022-09-12T10:11:57;100385.25;;;25.97;100.00
54808;BME280;40708;50.364;7.550;2022-09-12T10:14:30;100393.69;;;26.21;100.00
54808;BME280;40708;50.364;7.550;2022-09-12T10:16:57;100379.06;;;26.50;100.00
54808;BME280;40708;50.364;7.550;2022-09-12T10:19:35;100392.72;;;26.36;100.00
54808;BME280;40708;50.364;7.550;2022-09-12T10:22:03;100381.41;;;26.83;100.00
54808;BME280;40708;50.364;7.550;2022-09-12T10:29:33;100361.25;;;26.85;100.00
54808;BME280;40708;50.364;7.550;2022-09-12T10:32:06;100365.88;;;26.71;100.00
54808;BME280;40708;50.364;7.550;2022-09-12T10:34:40;100361.94;;;26.89;100.00
54808;BME280;40708;50.364;7.550;2022-09-12T10:37:08;100367.56;;;26.04;100.00
54808;BME280;40708;50.364;7.550;2022-09-12T10:39:36;100369.81;;;26.12;100.00
54808;BME280;40708;50.364;7.550;2022-09-12T10:42:03;100352.78;;;26.63;100.00
54808;BME280;40708;50.364;7.550;2022-09-12T10:44:31;100348.25;;;27.03;100.00
54808;BME280;40708;50.364;7.550;2022-09-12T10:46:59;100347.59;;;26.46;100.00
54808;BME280;40708;50.364;7.550;2022-09-12T10:49:29;100348.84;;;26.14;100.00
54808;BME280;40708;50.364;7.550;2022-09-12T10:51:56;100346.94;;;26.28;100.00
54808;BME280;40708;50.364;7.550;2022-09-12T10:54:26;100358.63;;;26.02;100.00
54808;BME280;40708;50.364;7.550;2022-09-12T10:57:05;100354.50;;;25.68;100.00
54808;BME280;40708;50.364;7.550;2022-09-12T10:59:41;100353.31;;;26.00;100.00
54808;BME280;40708;50.364;7.550;2022-09-12T11:05:06;100334.06;;;26.44;100.00
54808;BME280;40708;50.364;7.550;2022-09-12T11:07:48;100330.31;;;26.47;100.00
54808;BME280;40708;50.364;7.550;2022-09-12T11:16:51;100316.34;;;26.66;100.00
54808;BME280;40708;50.364;7.550;2022-09-12T11:25:26;100308.16;;;26.80;100.00
54808;BME280;40708;50.364;7.550;2022-09-12T11:28:01;100315.03;;;27.10;100.00
54808;BME280;40708;50.364;7.550;2022-09-12T11:30:38;100297.81;;;27.10;100.00
54808;BME280;40708;50.364;7.550;2022-09-12T11:33:43;100294.69;;;27.03;100.00
54808;BME280;40708;50.364;7.550;2022-09-12T11:36:20;100298.66;;;26.85;100.00
54808;BME280;40708;50.364;7.550;2022-09-12T11:41:34;100293.13;;;26.99;100.00
54808;BME280;40708;50.364;7.550;2022-09-12T11:44:14;100289.09;;;26.80;100.00
54808;BME280;40708;50.364;7.550;2022-09-12T11:46:43;100281.09;;;26.50;100.00
54808;BME280;40708;50.364;7.550;2022-09-12T11:51:59;100278.25;;;26.66;100.00
54808;BME280;40708;50.364;7.550;2022-09-12T12:01:58;100269.78;;;26.02;100.00
54808;BME280;40708;50.364;7.550;2022-09-12T12:04:31;100268.34;;;25.97;100.00
54808;BME280;40708;50.364;7.550;2022-09-12T12:07:09;100266.00;;;26.19;100.00
54808;BME280;40708;50.364;7.550;2022-09-12T12:09:44;100256.56;;;26.64;100.00
54808;BME280;40708;50.364;7.550;2022-09-12T12:12:15;100252.53;;;26.57;100.00
54808;BME280;40708;50.364;7.550;2022-09-12T12:14:44;100256.38;;;26.40;100.00
54808;BME280;40708;50.364;7.550;2022-09-12T12:17:16;100258.91;;;26.02;100.00
54808;BME280;40708;50.364;7.550;2022-09-12T12:19:42;100260.56;;;26.05;100.00
54808;BME280;40708;50.364;7.550;2022-09-12T12:22:19;100251.53;;;26.04;100.00
54808;BME280;40708;50.364;7.550;2022-09-12T12:27:55;100247.84;;;26.59;100.00
54808;BME280;40708;50.364;7.550;2022-09-12T12:38:27;100236.13;;;26.71;100.00
54808;BME280;40708;50.364;7.550;2022-09-12T12:40:53;100225.06;;;26.47;100.00
54808;BME280;40708;50.364;7.550;2022-09-12T12:43:28;100223.81;;;26.26;100.00
54808;BME280;40708;50.364;7.550;2022-09-12T12:46:04;100220.41;;;26.23;100.00
54808;BME280;40708;50.364;7.550;2022-09-12T12:48:33;100215.53;;;26.67;100.00
54808;BME280;40708;50.364;7.550;2022-09-12T12:54:25;100209.41;;;26.51;100.00
54808;BME280;40708;50.364;7.550;2022-09-12T12:57:00;100212.25;;;26.49;100.00
54808;BME280;40708;50.364;7.550;2022-09-12T12:59:26;100200.06;;;26.01;100.00
54808;BME280;40708;50.364;7.550;2022-09-12T13:01:54;100199.25;;;26.28;100.00
54808;BME280;40708;50.364;7.550;2022-09-12T13:04:22;100208.78;;;26.60;100.00
54808;BME280;40708;50.364;7.550;2022-09-12T13:12:11;100190.75;;;26.20;100.00
54808;BME280;40708;50.364;7.550;2022-09-12T13:17:40;100175.72;;;26.27;100.00
54808;BME280;40708;50.364;7.550;2022-09-12T13:22:43;100171.56;;;26.60;100.00
54808;BME280;40708;50.364;7.550;2022-09-12T13:28:04;100172.81;;;26.42;100.00
54808;BME280;40708;50.364;7.550;2022-09-12T13:30:35;100164.44;;;26.33;100.00
54808;BME280;40708;50.364;7.550;2022-09-12T13:33:17;100166.47;;;26.69;100.00
54808;BME280;40708;50.364;7.550;2022-09-12T13:41:32;100164.84;;;26.79;100.00
54808;BME280;40708;50.364;7.550;2022-09-12T13:44:03;100159.72;;;26.74;100.00
54808;BME280;40708;50.364;7.550;2022-09-12T13:46:33;100150.94;;;26.96;100.00
54808;BME280;40708;50.364;7.550;2022-09-12T13:49:04;100157.56;;;26.92;100.00
54808;BME280;40708;50.364;7.550;2022-09-12T13:51:31;100161.91;;;26.82;100.00
54808;BME280;40708;50.364;7.550;2022-09-12T13:53:58;100161.47;;;27.00;100.00
54808;BME280;40708;50.364;7.550;2022-09-12T13:56:27;100158.16;;;27.20;100.00
54808;BME280;40708;50.364;7.550;2022-09-12T13:58:55;100152.00;;;27.06;100.00
54808;BME280;40708;50.364;7.550;2022-09-12T14:01:34;100134.66;;;27.19;100.00
54808;BME280;40708;50.364;7.550;2022-09-12T14:04:13;100146.44;;;27.07;100.00
54808;BME280;40708;50.364;7.550;2022-09-12T14:06:59;100144.06;;;26.90;100.00
54808;BME280;40708;50.364;7.550;2022-09-12T14:09:36;100141.44;;;26.89;100.00
54808;BME280;40708;50.364;7.550;2022-09-12T14:12:03;100130.09;;;27.20;100.00
54808;BME280;40708;50.364;7.550;2022-09-12T14:14:34;100136.22;;;26.86;100.00
54808;BME280;40708;50.364;7.550;2022-09-12T14:17:13;100134.09;;;26.64;100.00
54808;BME280;40708;50.364;7.550;2022-09-12T14:19:39;100120.28;;;26.54;100.00
54808;BME280;40708;50.364;7.550;2022-09-12T14:22:07;100123.03;;;26.92;100.00
54808;BME280;40708;50.364;7.550;2022-09-12T14:24:33;100121.19;;;26.80;100.00
54808;BME280;40708;50.364;7.550;2022-09-12T14:26:59;100116.28;;;26.60;100.00
54808;BME280;40708;50.364;7.550;2022-09-12T14:29:25;100117.25;;;26.59;100.00
54808;BME280;40708;50.364;7.550;2022-09-12T14:32:01;100118.22;;;26.71;100.00
54808;BME280;40708;50.364;7.550;2022-09-12T14:34:27;100115.63;;;26.94;100.00
54808;BME280;40708;50.364;7.550;2022-09-12T14:36:54;100102.53;;;27.12;100.00
54808;BME280;40708;50.364;7.550;2022-09-12T14:39:25;100113.97;;;27.04;100.00
54808;BME280;40708;50.364;7.550;2022-09-12T14:42:01;100108.44;;;26.93;100.00
54808;BME280;40708;50.364;7.550;2022-09-12T14:44:29;100110.16;;;27.07;100.00
54808;BME280;40708;50.364;7.550;2022-09-12T14:47:09;100110.09;;;27.32;100.00